sensor_id;sensor_type;location;lat;lon;timestamp;pressure;altitude;pressure_sealevel;temperature;humidity
57885;BME280;43703;51.060;-0.086;2022-10-31T00:00:10;100336.92;;;11.41;76.27
57885;BME280;43703;51.060;-0.086;2022-10-31T00:02:35;100331.80;;;11.48;74.86
57885;BME280;43703;51.060;-0.086;2022-10-31T00:05:01;100328.93;;;11.77;74.96
57885;BME280;43703;51.060;-0.086;2022-10-31T00:07:27;100324.99;;;11.61;75.31
57885;BME280;43703;51.060;-0.086;2022-10-31T00:09:52;100329.86;;;11.44;74.90
57885;BME280;43703;51.060;-0.086;2022-10-31T00:12:18;100329.85;;;11.69;75.37
57885;BME280;43703;51.060;-0.086;2022-10-31T00:14:44;100328.30;;;11.91;74.94
57885;BME280;43703;51.060;-0.086;2022-10-31T00:17:10;100327.46;;;12.09;73.76
57885;BME280;43703;51.060;-0.086;2022-10-31T00:19:36;100330.33;;;12.27;73.03
57885;BME280;43703;51.060;-0.086;2022-10-31T00:22:02;100330.54;;;11.83;75.80
57885;BME280;43703;51.060;-0.086;2022-10-31T00:24:28;100328.81;;;12.10;72.95
57885;BME280;43703;51.060;-0.086;2022-10-31T00:26:53;100331.24;;;11.89;73.80
57885;BME280;43703;51.060;-0.086;2022-10-31T00:29:19;100338.22;;;11.95;73.50
57885;BME280;43703;51.060;-0.086;2022-10-31T00:31:45;100334.09;;;12.34;72.61
57885;BME280;43703;51.060;-0.086;2022-10-31T00:34:11;100333.75;;;13.16;70.90
57885;BME280;43703;51.060;-0.086;2022-10-31T00:36:37;100333.26;;;13.08;70.57
57885;BME280;43703;51.060;-0.086;2022-10-31T00:39:02;100333.23;;;12.87;69.78
57885;BME280;43703;51.060;-0.086;2022-10-31T00:41:27;100332.71;;;12.79;70.35
57885;BME280;43703;51.060;-0.086;2022-10-31T00:43:53;100329.07;;;13.23;69.73
57885;BME280;43703;51.060;-0.086;2022-10-31T00:46:19;100331.68;;;13.05;69.55
57885;BME280;43703;51.060;-0.086;2022-10-31T00:48:45;100335.26;;;12.87;70.83
57885;BME280;43703;51.060;-0.086;2022-10-31T00:51:10;100336.09;;;12.77;69.68
57885;BME280;43703;51.060;-0.086;2022-10-31T00:53:36;100333.99;;;12.26;71.69
57885;BME280;43703;51.060;-0.086;2022-10-31T00:56:03;100334.01;;;12.90;70.37
57885;BME280;43703;51.060;-0.086;2022-10-31T00:58:28;100333.05;;;13.08;69.31
57885;BME280;43703;51.060;-0.086;2022-10-31T01:00:54;100332.48;;;12.62;72.15
57885;BME280;43703;51.060;-0.086;2022-10-31T01:03:20;100336.36;;;13.25;70.52
57885;BME280;43703;51.060;-0.086;2022-10-31T01:05:45;100335.19;;;12.67;71.26
57885;BME280;43703;51.060;-0.086;2022-10-31T01:08:11;100336.28;;;12.66;69.47
57885;BME280;43703;51.060;-0.086;2022-10-31T01:10:37;100334.70;;;12.77;70.40
57885;BME280;43703;51.060;-0.086;2022-10-31T01:13:03;100336.22;;;12.34;69.69
57885;BME280;43703;51.060;-0.086;2022-10-31T01:15:29;100340.04;;;12.45;70.95
57885;BME280;43703;51.060;-0.086;2022-10-31T01:17:55;100339.97;;;13.04;70.51
57885;BME280;43703;51.060;-0.086;2022-10-31T01:20:21;100334.61;;;12.92;70.61
57885;BME280;43703;51.060;-0.086;2022-10-31T01:22:47;100338.59;;;12.13;72.30
57885;BME280;43703;51.060;-0.086;2022-10-31T01:25:12;100330.17;;;12.49;71.71
57885;BME280;43703;51.060;-0.086;2022-10-31T01:27:38;100331.07;;;11.97;72.74
57885;BME280;43703;51.060;-0.086;2022-10-31T01:30:05;100328.48;;;11.98;73.56
57885;BME280;43703;51.060;-0.086;2022-10-31T01:32:29;100326.33;;;12.64;71.36
57885;BME280;43703;51.060;-0.086;2022-10-31T01:34:55;100321.29;;;12.64;70.91
57885;BME280;43703;51.060;-0.086;2022-10-31T01:37:21;100318.21;;;13.01;70.36
57885;BME280;43703;51.060;-0.086;2022-10-31T01:39:48;100315.38;;;12.70;69.37
57885;BME280;43703;51.060;-0.086;2022-10-31T01:42:19;100318.08;;;13.17;68.95
57885;BME280;43703;51.060;-0.086;2022-10-31T01:44:49;100318.55;;;12.58;69.04
57885;BME280;43703;51.060;-0.086;2022-10-31T01:47:06;100317.27;;;12.59;69.41
57885;BME280;43703;51.060;-0.086;2022-10-31T01:49:33;100314.35;;;12.81;69.04
57885;BME280;43703;51.060;-0.086;2022-10-31T01:51:58;100317.28;;;12.67;69.37
57885;BME280;43703;51.060;-0.086;2022-10-31T01:54:24;100316.12;;;12.82;68.87
57885;BME280;43703;51.060;-0.086;2022-10-31T01:56:50;100316.14;;;12.59;69.89
57885;BME280;43703;51.060;-0.086;2022-10-31T01:59:16;100317.37;;;12.82;69.29
57885;BME280;43703;51.060;-0.086;2022-10-31T02:01:39;100320.33;;;12.11;70.28
57885;BME280;43703;51.060;-0.086;2022-10-31T02:04:07;100315.05;;;12.87;70.28
57885;BME280;43703;51.060;-0.086;2022-10-31T02:06:35;100310.15;;;12.30;70.25
57885;BME280;43703;51.060;-0.086;2022-10-31T02:08:57;100310.19;;;12.62;69.51
57885;BME280;43703;51.060;-0.086;2022-10-31T02:11:22;100309.15;;;12.87;68.83
57885;BME280;43703;51.060;-0.086;2022-10-31T02:13:48;100307.87;;;12.75;69.28
57885;BME280;43703;51.060;-0.086;2022-10-31T02:16:14;100306.12;;;13.03;68.84
57885;BME280;43703;51.060;-0.086;2022-10-31T02:18:40;100302.65;;;12.61;68.99
57885;BME280;43703;51.060;-0.086;2022-10-31T02:21:14;100302.58;;;12.81;69.05
57885;BME280;43703;51.060;-0.086;2022-10-31T02:26:10;100293.68;;;12.43;69.48
57885;BME280;43703;51.060;-0.086;2022-10-31T02:28:33;100290.13;;;12.50;70.48
57885;BME280;43703;51.060;-0.086;2022-10-31T02:31:00;100289.32;;;12.68;69.44
57885;BME280;43703;51.060;-0.086;2022-10-31T02:33:21;100290.46;;;12.65;69.12
57885;BME280;43703;51.060;-0.086;2022-10-31T02:35:49;100290.35;;;12.52;70.20
57885;BME280;43703;51.060;-0.086;2022-10-31T02:38:26;100288.28;;;12.71;69.63
57885;BME280;43703;51.060;-0.086;2022-10-31T02:40:37;100286.36;;;12.86;69.01
57885;BME280;43703;51.060;-0.086;2022-10-31T02:43:03;100284.49;;;11.91;71.12
57885;BME280;43703;51.060;-0.086;2022-10-31T02:45:28;100283.47;;;12.55;70.31
57885;BME280;43703;51.060;-0.086;2022-10-31T02:47:51;100284.07;;;11.88;70.99
57885;BME280;43703;51.060;-0.086;2022-10-31T02:50:19;100284.63;;;12.65;69.80
57885;BME280;43703;51.060;-0.086;2022-10-31T02:52:40;100284.47;;;12.70;69.85
57885;BME280;43703;51.060;-0.086;2022-10-31T02:55:12;100282.69;;;12.93;68.93
57885;BME280;43703;51.060;-0.086;2022-10-31T02:57:33;100275.57;;;13.19;69.15
57885;BME280;43703;51.060;-0.086;2022-10-31T03:00:01;100277.64;;;12.63;68.78
57885;BME280;43703;51.060;-0.086;2022-10-31T03:02:35;100277.62;;;12.69;67.85
57885;BME280;43703;51.060;-0.086;2022-10-31T03:07:21;100277.47;;;12.21;69.31
57885;BME280;43703;51.060;-0.086;2022-10-31T03:09:46;100273.01;;;12.52;68.54
57885;BME280;43703;51.060;-0.086;2022-10-31T03:12:09;100268.03;;;12.64;68.49
57885;BME280;43703;51.060;-0.086;2022-10-31T03:14:38;100266.73;;;12.48;68.68
57885;BME280;43703;51.060;-0.086;2022-10-31T03:16:59;100268.17;;;12.71;69.02
57885;BME280;43703;51.060;-0.086;2022-10-31T03:19:25;100261.73;;;13.15;68.53
57885;BME280;43703;51.060;-0.086;2022-10-31T03:21:52;100257.98;;;12.89;68.36
57885;BME280;43703;51.060;-0.086;2022-10-31T03:24:14;100264.50;;;12.92;67.63
57885;BME280;43703;51.060;-0.086;2022-10-31T03:26:44;100270.58;;;13.10;68.11
57885;BME280;43703;51.060;-0.086;2022-10-31T03:29:08;100266.41;;;13.20;68.05
57885;BME280;43703;51.060;-0.086;2022-10-31T03:31:35;100270.75;;;12.68;67.65
57885;BME280;43703;51.060;-0.086;2022-10-31T03:33:59;100273.03;;;12.59;68.27
57885;BME280;43703;51.060;-0.086;2022-10-31T03:36:24;100265.75;;;12.21;69.44
57885;BME280;43703;51.060;-0.086;2022-10-31T03:38:50;100268.07;;;12.21;69.08
57885;BME280;43703;51.060;-0.086;2022-10-31T03:41:18;100268.93;;;12.09;69.33
57885;BME280;43703;51.060;-0.086;2022-10-31T03:43:48;100271.14;;;12.38;69.23
57885;BME280;43703;51.060;-0.086;2022-10-31T03:46:07;100270.55;;;12.58;68.83
57885;BME280;43703;51.060;-0.086;2022-10-31T03:48:32;100266.20;;;11.95;70.25
57885;BME280;43703;51.060;-0.086;2022-10-31T03:51:04;100266.21;;;12.49;69.32
57885;BME280;43703;51.060;-0.086;2022-10-31T03:53:29;100260.86;;;13.03;69.39
57885;BME280;43703;51.060;-0.086;2022-10-31T03:55:52;100259.97;;;12.67;68.83
57885;BME280;43703;51.060;-0.086;2022-10-31T03:58:20;100261.94;;;11.77;70.99
57885;BME280;43703;51.060;-0.086;2022-10-31T04:00:44;100266.82;;;12.57;70.33
57885;BME280;43703;51.060;-0.086;2022-10-31T04:03:10;100263.64;;;12.96;69.38
57885;BME280;43703;51.060;-0.086;2022-10-31T04:05:34;100262.97;;;12.59;68.80
57885;BME280;43703;51.060;-0.086;2022-10-31T04:08:01;100262.09;;;13.08;69.04
57885;BME280;43703;51.060;-0.086;2022-10-31T04:10:26;100265.41;;;12.55;68.80
57885;BME280;43703;51.060;-0.086;2022-10-31T04:12:54;100264.64;;;12.44;68.34
57885;BME280;43703;51.060;-0.086;2022-10-31T04:15:17;100262.43;;;12.90;67.47
57885;BME280;43703;51.060;-0.086;2022-10-31T04:17:44;100262.07;;;12.71;67.43
57885;BME280;43703;51.060;-0.086;2022-10-31T04:20:09;100262.23;;;12.11;68.07
57885;BME280;43703;51.060;-0.086;2022-10-31T04:22:33;100258.84;;;11.49;70.64
57885;BME280;43703;51.060;-0.086;2022-10-31T04:24:59;100254.64;;;12.04;70.18
57885;BME280;43703;51.060;-0.086;2022-10-31T04:27:25;100252.13;;;11.21;71.85
57885;BME280;43703;51.060;-0.086;2022-10-31T04:29:50;100248.75;;;10.79;73.11
57885;BME280;43703;51.060;-0.086;2022-10-31T04:32:16;100247.60;;;11.63;72.19
57885;BME280;43703;51.060;-0.086;2022-10-31T04:34:42;100244.83;;;11.67;72.01
57885;BME280;43703;51.060;-0.086;2022-10-31T04:37:08;100244.06;;;11.98;70.90
57885;BME280;43703;51.060;-0.086;2022-10-31T04:39:34;100247.91;;;11.74;70.67
57885;BME280;43703;51.060;-0.086;2022-10-31T04:42:00;100246.75;;;11.95;69.87
57885;BME280;43703;51.060;-0.086;2022-10-31T04:44:26;100241.78;;;12.36;68.66
57885;BME280;43703;51.060;-0.086;2022-10-31T04:46:51;100236.13;;;12.50;68.34
57885;BME280;43703;51.060;-0.086;2022-10-31T04:49:17;100237.32;;;12.29;68.36
57885;BME280;43703;51.060;-0.086;2022-10-31T04:51:43;100235.06;;;12.27;68.50
57885;BME280;43703;51.060;-0.086;2022-10-31T04:54:09;100224.98;;;12.68;68.68
57885;BME280;43703;51.060;-0.086;2022-10-31T04:56:35;100222.80;;;12.60;67.67
57885;BME280;43703;51.060;-0.086;2022-10-31T04:59:01;100220.26;;;12.56;67.41
57885;BME280;43703;51.060;-0.086;2022-10-31T05:01:26;100218.78;;;12.36;67.91
57885;BME280;43703;51.060;-0.086;2022-10-31T05:03:52;100220.26;;;12.89;67.49
57885;BME280;43703;51.060;-0.086;2022-10-31T05:06:18;100225.03;;;12.03;68.08
57885;BME280;43703;51.060;-0.086;2022-10-31T05:08:44;100223.16;;;12.30;68.70
57885;BME280;43703;51.060;-0.086;2022-10-31T05:11:09;100218.40;;;11.91;68.48
57885;BME280;43703;51.060;-0.086;2022-10-31T05:13:35;100221.32;;;11.97;68.56
57885;BME280;43703;51.060;-0.086;2022-10-31T05:16:01;100218.83;;;11.58;68.62
57885;BME280;43703;51.060;-0.086;2022-10-31T05:18:27;100215.08;;;11.82;67.24
57885;BME280;43703;51.060;-0.086;2022-10-31T05:20:52;100215.72;;;12.11;66.95
57885;BME280;43703;51.060;-0.086;2022-10-31T05:23:18;100218.91;;;11.90;67.08
57885;BME280;43703;51.060;-0.086;2022-10-31T05:25:44;100219.32;;;11.36;68.42
57885;BME280;43703;51.060;-0.086;2022-10-31T05:28:10;100221.91;;;11.74;68.18
57885;BME280;43703;51.060;-0.086;2022-10-31T05:30:36;100213.40;;;12.61;67.29
57885;BME280;43703;51.060;-0.086;2022-10-31T05:33:01;100217.16;;;12.32;67.43
57885;BME280;43703;51.060;-0.086;2022-10-31T05:35:29;100217.38;;;12.33;67.41
57885;BME280;43703;51.060;-0.086;2022-10-31T05:37:53;100219.97;;;11.89;67.66
57885;BME280;43703;51.060;-0.086;2022-10-31T05:40:20;100214.77;;;12.56;66.62
57885;BME280;43703;51.060;-0.086;2022-10-31T05:42:45;100216.91;;;12.08;67.62
57885;BME280;43703;51.060;-0.086;2022-10-31T05:45:12;100215.01;;;12.13;66.70
57885;BME280;43703;51.060;-0.086;2022-10-31T05:47:36;100208.72;;;12.22;66.54
57885;BME280;43703;51.060;-0.086;2022-10-31T05:50:03;100209.72;;;12.11;66.41
57885;BME280;43703;51.060;-0.086;2022-10-31T05:52:28;100213.63;;;12.06;66.44
57885;BME280;43703;51.060;-0.086;2022-10-31T05:54:54;100206.77;;;11.67;67.18
57885;BME280;43703;51.060;-0.086;2022-10-31T05:57:20;100208.85;;;11.38;66.71
57885;BME280;43703;51.060;-0.086;2022-10-31T05:59:45;100203.94;;;11.34;67.64
57885;BME280;43703;51.060;-0.086;2022-10-31T06:02:10;100198.15;;;11.28;67.68
57885;BME280;43703;51.060;-0.086;2022-10-31T06:04:36;100195.32;;;11.52;67.18
57885;BME280;43703;51.060;-0.086;2022-10-31T06:07:02;100190.16;;;11.56;67.42
57885;BME280;43703;51.060;-0.086;2022-10-31T06:09:28;100185.06;;;11.28;67.94
57885;BME280;43703;51.060;-0.086;2022-10-31T06:11:54;100186.47;;;10.98;68.43
57885;BME280;43703;51.060;-0.086;2022-10-31T06:14:19;100183.47;;;11.60;67.94
57885;BME280;43703;51.060;-0.086;2022-10-31T06:16:44;100182.98;;;10.94;68.66
57885;BME280;43703;51.060;-0.086;2022-10-31T06:19:09;100182.55;;;10.05;73.60
57885;BME280;43703;51.060;-0.086;2022-10-31T06:21:36;100179.35;;;11.09;71.48
57885;BME280;43703;51.060;-0.086;2022-10-31T06:24:01;100182.05;;;10.47;72.55
57885;BME280;43703;51.060;-0.086;2022-10-31T06:26:26;100182.23;;;12.11;69.38
57885;BME280;43703;51.060;-0.086;2022-10-31T06:28:51;100180.78;;;11.82;69.81
57885;BME280;43703;51.060;-0.086;2022-10-31T06:31:16;100178.52;;;11.53;69.35
57885;BME280;43703;51.060;-0.086;2022-10-31T06:33:42;100179.62;;;11.34;70.05
57885;BME280;43703;51.060;-0.086;2022-10-31T06:36:07;100177.86;;;11.04;71.46
57885;BME280;43703;51.060;-0.086;2022-10-31T06:38:33;100174.14;;;11.15;70.82
57885;BME280;43703;51.060;-0.086;2022-10-31T06:41:02;100169.60;;;10.97;71.04
57885;BME280;43703;51.060;-0.086;2022-10-31T06:43:24;100169.06;;;10.19;73.40
57885;BME280;43703;51.060;-0.086;2022-10-31T06:45:50;100169.80;;;10.13;73.36
57885;BME280;43703;51.060;-0.086;2022-10-31T06:48:16;100168.23;;;11.84;70.16
57885;BME280;43703;51.060;-0.086;2022-10-31T06:50:42;100168.70;;;10.36;72.29
57885;BME280;43703;51.060;-0.086;2022-10-31T06:53:08;100167.92;;;10.26;74.31
57885;BME280;43703;51.060;-0.086;2022-10-31T06:55:33;100165.11;;;10.38;72.71
57885;BME280;43703;51.060;-0.086;2022-10-31T06:58:00;100165.04;;;11.07;71.10
57885;BME280;43703;51.060;-0.086;2022-10-31T07:00:26;100161.40;;;10.94;70.94
57885;BME280;43703;51.060;-0.086;2022-10-31T07:02:54;100158.76;;;10.64;72.37
57885;BME280;43703;51.060;-0.086;2022-10-31T07:05:16;100153.45;;;10.70;72.25
57885;BME280;43703;51.060;-0.086;2022-10-31T07:07:42;100153.16;;;11.70;70.27
57885;BME280;43703;51.060;-0.086;2022-10-31T07:10:08;100152.10;;;11.17;70.27
57885;BME280;43703;51.060;-0.086;2022-10-31T07:12:34;100150.40;;;11.71;70.19
57885;BME280;43703;51.060;-0.086;2022-10-31T07:15:00;100152.06;;;10.42;72.42
57885;BME280;43703;51.060;-0.086;2022-10-31T07:17:25;100146.75;;;10.29;73.78
57885;BME280;43703;51.060;-0.086;2022-10-31T07:19:51;100147.06;;;10.54;73.69
57885;BME280;43703;51.060;-0.086;2022-10-31T07:22:17;100150.54;;;10.19;75.68
57885;BME280;43703;51.060;-0.086;2022-10-31T07:24:43;100150.57;;;10.68;73.36
57885;BME280;43703;51.060;-0.086;2022-10-31T07:27:08;100152.16;;;11.44;71.74
57885;BME280;43703;51.060;-0.086;2022-10-31T07:29:34;100150.01;;;11.12;71.67
57885;BME280;43703;51.060;-0.086;2022-10-31T07:31:59;100148.69;;;11.10;71.59
57885;BME280;43703;51.060;-0.086;2022-10-31T07:34:25;100150.43;;;11.09;70.86
57885;BME280;43703;51.060;-0.086;2022-10-31T07:36:51;100152.02;;;10.76;72.40
57885;BME280;43703;51.060;-0.086;2022-10-31T07:39:17;100154.54;;;10.12;74.58
57885;BME280;43703;51.060;-0.086;2022-10-31T07:41:43;100152.09;;;10.10;74.03
57885;BME280;43703;51.060;-0.086;2022-10-31T07:44:09;100149.33;;;11.29;72.77
57885;BME280;43703;51.060;-0.086;2022-10-31T07:46:35;100143.29;;;12.41;70.50
57885;BME280;43703;51.060;-0.086;2022-10-31T07:49:00;100147.21;;;11.60;71.22
57885;BME280;43703;51.060;-0.086;2022-10-31T07:51:26;100149.37;;;10.95;72.86
57885;BME280;43703;51.060;-0.086;2022-10-31T07:53:51;100144.68;;;11.64;70.72
57885;BME280;43703;51.060;-0.086;2022-10-31T07:56:17;100142.08;;;11.80;71.87
57885;BME280;43703;51.060;-0.086;2022-10-31T07:58:43;100141.92;;;12.43;69.93
57885;BME280;43703;51.060;-0.086;2022-10-31T08:01:09;100139.92;;;12.51;69.43
57885;BME280;43703;51.060;-0.086;2022-10-31T08:03:35;100142.39;;;11.89;72.26
57885;BME280;43703;51.060;-0.086;2022-10-31T08:06:00;100137.62;;;11.71;72.13
57885;BME280;43703;51.060;-0.086;2022-10-31T08:08:26;100139.10;;;11.49;72.81
57885;BME280;43703;51.060;-0.086;2022-10-31T08:10:52;100141.87;;;11.27;74.71
57885;BME280;43703;51.060;-0.086;2022-10-31T08:13:18;100138.14;;;11.19;73.42
57885;BME280;43703;51.060;-0.086;2022-10-31T08:15:43;100138.01;;;11.99;71.92
57885;BME280;43703;51.060;-0.086;2022-10-31T08:18:12;100135.78;;;11.13;74.00
57885;BME280;43703;51.060;-0.086;2022-10-31T08:20:35;100133.39;;;11.52;74.71
57885;BME280;43703;51.060;-0.086;2022-10-31T08:23:02;100126.92;;;12.25;71.82
57885;BME280;43703;51.060;-0.086;2022-10-31T08:25:27;100127.57;;;10.50;77.28
57885;BME280;43703;51.060;-0.086;2022-10-31T08:27:53;100123.06;;;11.38;77.39
57885;BME280;43703;51.060;-0.086;2022-10-31T08:30:18;100120.53;;;12.39;73.91
57885;BME280;43703;51.060;-0.086;2022-10-31T08:32:43;100120.46;;;12.28;74.40
57885;BME280;43703;51.060;-0.086;2022-10-31T08:35:09;100115.15;;;14.34;74.19
57885;BME280;43703;51.060;-0.086;2022-10-31T08:37:34;100111.19;;;13.48;69.93
57885;BME280;43703;51.060;-0.086;2022-10-31T08:40:00;100109.96;;;12.70;72.53
57885;BME280;43703;51.060;-0.086;2022-10-31T08:42:26;100109.22;;;12.79;72.69
57885;BME280;43703;51.060;-0.086;2022-10-31T08:44:52;100104.44;;;12.94;71.94
57885;BME280;43703;51.060;-0.086;2022-10-31T08:47:17;100106.04;;;14.34;73.28
57885;BME280;43703;51.060;-0.086;2022-10-31T08:49:43;100104.94;;;13.40;69.41
57885;BME280;43703;51.060;-0.086;2022-10-31T08:52:09;100104.87;;;12.52;71.39
57885;BME280;43703;51.060;-0.086;2022-10-31T08:54:35;100098.55;;;14.36;68.51
57885;BME280;43703;51.060;-0.086;2022-10-31T08:57:00;100096.48;;;13.62;68.01
57885;BME280;43703;51.060;-0.086;2022-10-31T08:59:26;100097.26;;;15.07;68.17
57885;BME280;43703;51.060;-0.086;2022-10-31T09:01:52;100088.90;;;14.35;67.57
57885;BME280;43703;51.060;-0.086;2022-10-31T09:04:18;100087.96;;;14.09;66.47
57885;BME280;43703;51.060;-0.086;2022-10-31T09:06:44;100085.73;;;15.75;66.26
57885;BME280;43703;51.060;-0.086;2022-10-31T09:09:09;100084.35;;;15.83;69.70
57885;BME280;43703;51.060;-0.086;2022-10-31T09:11:35;100083.90;;;15.27;64.26
57885;BME280;43703;51.060;-0.086;2022-10-31T09:14:01;100081.87;;;14.39;65.85
57885;BME280;43703;51.060;-0.086;2022-10-31T09:16:27;100077.51;;;15.99;66.54
57885;BME280;43703;51.060;-0.086;2022-10-31T09:18:52;100074.76;;;15.88;62.64
57885;BME280;43703;51.060;-0.086;2022-10-31T09:21:18;100076.68;;;14.70;65.66
57885;BME280;43703;51.060;-0.086;2022-10-31T09:23:44;100074.82;;;15.17;63.57
57885;BME280;43703;51.060;-0.086;2022-10-31T09:26:10;100071.81;;;17.15;65.02
57885;BME280;43703;51.060;-0.086;2022-10-31T09:28:35;100067.47;;;18.32;59.72
57885;BME280;43703;51.060;-0.086;2022-10-31T09:31:01;100066.21;;;16.67;57.29
57885;BME280;43703;51.060;-0.086;2022-10-31T09:33:27;100063.59;;;17.06;62.77
57885;BME280;43703;51.060;-0.086;2022-10-31T09:35:53;100057.09;;;16.85;58.69
57885;BME280;43703;51.060;-0.086;2022-10-31T09:38:20;100052.34;;;17.76;64.10
57885;BME280;43703;51.060;-0.086;2022-10-31T09:40:47;100045.30;;;18.72;59.49
57885;BME280;43703;51.060;-0.086;2022-10-31T09:43:15;100037.14;;;18.71;59.88
57885;BME280;43703;51.060;-0.086;2022-10-31T09:45:41;100030.61;;;18.49;55.63
57885;BME280;43703;51.060;-0.086;2022-10-31T09:48:14;100025.03;;;17.24;57.54
57885;BME280;43703;51.060;-0.086;2022-10-31T09:50:31;100025.94;;;17.53;56.74
57885;BME280;43703;51.060;-0.086;2022-10-31T09:52:58;100026.23;;;18.43;58.31
57885;BME280;43703;51.060;-0.086;2022-10-31T09:55:25;100025.11;;;17.21;56.53
57885;BME280;43703;51.060;-0.086;2022-10-31T09:57:45;100022.10;;;16.71;57.88
57885;BME280;43703;51.060;-0.086;2022-10-31T10:00:16;100021.00;;;16.74;57.64
57885;BME280;43703;51.060;-0.086;2022-10-31T10:02:38;100020.31;;;15.13;61.32
57885;BME280;43703;51.060;-0.086;2022-10-31T10:05:03;100015.75;;;16.41;58.84
57885;BME280;43703;51.060;-0.086;2022-10-31T10:07:38;100015.89;;;17.18;57.82
57885;BME280;43703;51.060;-0.086;2022-10-31T10:09:53;100012.14;;;17.63;56.70
57885;BME280;43703;51.060;-0.086;2022-10-31T10:12:34;100017.66;;;15.36;60.46
57885;BME280;43703;51.060;-0.086;2022-10-31T10:14:53;100010.29;;;14.35;63.98
57885;BME280;43703;51.060;-0.086;2022-10-31T10:17:20;100003.40;;;14.64;63.81
57885;BME280;43703;51.060;-0.086;2022-10-31T10:19:52;100004.17;;;15.05;65.62
57885;BME280;43703;51.060;-0.086;2022-10-31T10:22:07;99998.05;;;13.33;66.64
57885;BME280;43703;51.060;-0.086;2022-10-31T10:24:36;100002.47;;;14.62;65.39
57885;BME280;43703;51.060;-0.086;2022-10-31T10:27:01;100002.11;;;16.25;60.65
57885;BME280;43703;51.060;-0.086;2022-10-31T10:29:31;100000.25;;;14.07;65.35
57885;BME280;43703;51.060;-0.086;2022-10-31T10:31:49;99998.41;;;14.11;65.63
57885;BME280;43703;51.060;-0.086;2022-10-31T10:34:15;99995.51;;;15.75;62.50
57885;BME280;43703;51.060;-0.086;2022-10-31T10:36:39;99998.85;;;14.52;65.60
57885;BME280;43703;51.060;-0.086;2022-10-31T10:39:05;99996.27;;;14.85;65.63
57885;BME280;43703;51.060;-0.086;2022-10-31T10:41:31;99997.35;;;15.86;61.70
57885;BME280;43703;51.060;-0.086;2022-10-31T10:43:54;99991.38;;;16.46;58.92
57885;BME280;43703;51.060;-0.086;2022-10-31T10:46:24;99997.06;;;14.55;63.98
57885;BME280;43703;51.060;-0.086;2022-10-31T10:48:51;99999.90;;;14.65;63.01
57885;BME280;43703;51.060;-0.086;2022-10-31T10:51:20;99991.39;;;15.61;60.83
57885;BME280;43703;51.060;-0.086;2022-10-31T10:53:46;99985.06;;;15.61;60.92
57885;BME280;43703;51.060;-0.086;2022-10-31T10:56:13;99970.58;;;16.22;59.20
57885;BME280;43703;51.060;-0.086;2022-10-31T10:58:29;99966.11;;;15.86;59.31
57885;BME280;43703;51.060;-0.086;2022-10-31T11:00:55;99972.65;;;15.10;59.15
57885;BME280;43703;51.060;-0.086;2022-10-31T11:03:20;99964.78;;;14.10;60.09
57885;BME280;43703;51.060;-0.086;2022-10-31T11:05:49;99963.22;;;14.84;59.21
57885;BME280;43703;51.060;-0.086;2022-10-31T11:10:38;99955.73;;;13.63;62.94
57885;BME280;43703;51.060;-0.086;2022-10-31T11:13:15;99954.43;;;15.07;60.15
57885;BME280;43703;51.060;-0.086;2022-10-31T11:15:48;99948.10;;;13.91;62.43
57885;BME280;43703;51.060;-0.086;2022-10-31T11:17:56;99935.02;;;13.85;61.55
57885;BME280;43703;51.060;-0.086;2022-10-31T11:20:27;99932.31;;;14.13;62.83
57885;BME280;43703;51.060;-0.086;2022-10-31T11:22:48;99934.04;;;14.19;62.69
57885;BME280;43703;51.060;-0.086;2022-10-31T11:25:20;99930.49;;;13.85;64.07
57885;BME280;43703;51.060;-0.086;2022-10-31T11:27:38;99925.35;;;14.06;62.59
57885;BME280;43703;51.060;-0.086;2022-10-31T11:30:06;99927.97;;;14.21;60.80
57885;BME280;43703;51.060;-0.086;2022-10-31T11:32:30;99923.73;;;14.31;63.55
57885;BME280;43703;51.060;-0.086;2022-10-31T11:34:59;99918.52;;;14.36;62.54
57885;BME280;43703;51.060;-0.086;2022-10-31T11:37:24;99913.02;;;13.76;61.66
57885;BME280;43703;51.060;-0.086;2022-10-31T11:39:50;99904.97;;;13.72;61.66
57885;BME280;43703;51.060;-0.086;2022-10-31T11:42:13;99904.19;;;14.98;60.09
57885;BME280;43703;51.060;-0.086;2022-10-31T11:44:42;99900.35;;;14.41;60.79
57885;BME280;43703;51.060;-0.086;2022-10-31T11:47:09;99903.11;;;15.02;59.36
57885;BME280;43703;51.060;-0.086;2022-10-31T11:49:35;99891.28;;;13.42;64.41
57885;BME280;43703;51.060;-0.086;2022-10-31T11:51:58;99885.67;;;13.71;62.05
57885;BME280;43703;51.060;-0.086;2022-10-31T11:54:25;99875.95;;;14.42;60.82
57885;BME280;43703;51.060;-0.086;2022-10-31T11:56:48;99873.32;;;14.68;60.77
57885;BME280;43703;51.060;-0.086;2022-10-31T11:59:20;99860.40;;;15.18;59.14
57885;BME280;43703;51.060;-0.086;2022-10-31T12:01:40;99852.63;;;14.76;59.72
57885;BME280;43703;51.060;-0.086;2022-10-31T12:04:07;99848.48;;;14.51;60.43
57885;BME280;43703;51.060;-0.086;2022-10-31T12:06:34;99841.93;;;13.86;61.35
57885;BME280;43703;51.060;-0.086;2022-10-31T12:08:57;99832.85;;;15.53;58.98
57885;BME280;43703;51.060;-0.086;2022-10-31T12:11:35;99817.63;;;14.51;59.42
57885;BME280;43703;51.060;-0.086;2022-10-31T12:13:58;99810.43;;;15.82;60.13
57885;BME280;43703;51.060;-0.086;2022-10-31T12:16:18;99798.33;;;15.78;58.66
57885;BME280;43703;51.060;-0.086;2022-10-31T12:18:53;99799.28;;;16.19;58.21
57885;BME280;43703;51.060;-0.086;2022-10-31T12:21:17;99796.42;;;16.32;56.72
57885;BME280;43703;51.060;-0.086;2022-10-31T12:23:46;99789.84;;;15.67;59.85
57885;BME280;43703;51.060;-0.086;2022-10-31T12:26:06;99791.33;;;16.15;57.58
57885;BME280;43703;51.060;-0.086;2022-10-31T12:28:37;99787.86;;;14.91;60.19
57885;BME280;43703;51.060;-0.086;2022-10-31T12:30:58;99775.03;;;15.06;60.10
57885;BME280;43703;51.060;-0.086;2022-10-31T12:33:26;99770.24;;;15.54;59.42
57885;BME280;43703;51.060;-0.086;2022-10-31T12:35:45;99762.69;;;15.99;56.22
57885;BME280;43703;51.060;-0.086;2022-10-31T12:40:42;99760.36;;;14.44;60.49
57885;BME280;43703;51.060;-0.086;2022-10-31T12:43:09;99753.57;;;13.90;62.51